sensor_id;sensor_type;location;lat;lon;timestamp;temperature;humidity
5592;DHT22;2818;49.790;9.958;2022-08-19T00:01:34;23.10;99.90
5592;DHT22;2818;49.790;9.958;2022-08-19T00:04:06;23.10;99.90
5592;DHT22;2818;49.790;9.958;2022-08-19T00:06:35;23.10;99.90
5592;DHT22;2818;49.790;9.958;2022-08-19T00:09:04;23.10;99.90
5592;DHT22;2818;49.790;9.958;2022-08-19T00:11:32;23.00;99.90
5592;DHT22;2818;49.790;9.958;2022-08-19T00:14:01;23.00;99.90
5592;DHT22;2818;49.790;9.958;2022-08-19T00:16:28;23.00;99.90
5592;DHT22;2818;49.790;9.958;2022-08-19T00:18:56;22.90;1.00
5592;DHT22;2818;49.790;9.958;2022-08-19T00:21:24;22.90;1.00
5592;DHT22;2818;49.790;9.958;2022-08-19T00:23:53;22.80;1.00
5592;DHT22;2818;49.790;9.958;2022-08-19T00:26:21;22.80;1.00
5592;DHT22;2818;49.790;9.958;2022-08-19T00:28:48;22.80;1.00
5592;DHT22;2818;49.790;9.958;2022-08-19T00:31:16;22.70;1.00
5592;DHT22;2818;49.790;9.958;2022-08-19T00:33:44;22.70;1.00
5592;DHT22;2818;49.790;9.958;2022-08-19T00:36:11;22.60;1.00
5592;DHT22;2818;49.790;9.958;2022-08-19T00:38:39;22.60;1.00
5592;DHT22;2818;49.790;9.958;2022-08-19T00:41:14;22.60;1.00
5592;DHT22;2818;49.790;9.958;2022-08-19T00:43:41;22.60;1.00
5592;DHT22;2818;49.790;9.958;2022-08-19T00:46:08;22.60;1.00
5592;DHT22;2818;49.790;9.958;2022-08-19T00:48:36;22.50;1.00
5592;DHT22;2818;49.790;9.958;2022-08-19T00:51:04;22.50;1.00
5592;DHT22;2818;49.790;9.958;2022-08-19T00:53:32;22.50;1.00
5592;DHT22;2818;49.790;9.958;2022-08-19T00:56:01;22.40;1.00
5592;DHT22;2818;49.790;9.958;2022-08-19T00:58:31;22.40;1.00
5592;DHT22;2818;49.790;9.958;2022-08-19T01:01:00;22.40;1.00
5592;DHT22;2818;49.790;9.958;2022-08-19T01:03:28;22.30;1.00
5592;DHT22;2818;49.790;9.958;2022-08-19T01:06:16;22.30;1.00
5592;DHT22;2818;49.790;9.958;2022-08-19T01:08:46;22.20;1.00
5592;DHT22;2818;49.790;9.958;2022-08-19T01:11:16;22.20;1.00
5592;DHT22;2818;49.790;9.958;2022-08-19T01:13:43;22.10;1.00
5592;DHT22;2818;49.790;9.958;2022-08-19T01:16:17;22.10;1.00
5592;DHT22;2818;49.790;9.958;2022-08-19T01:18:44;22.10;39.90
5592;DHT22;2818;49.790;9.958;2022-08-19T01:23:57;22.00;99.90
5592;DHT22;2818;49.790;9.958;2022-08-19T01:26:25;22.00;99.90
5592;DHT22;2818;49.790;9.958;2022-08-19T01:28:55;22.00;99.90
5592;DHT22;2818;49.790;9.958;2022-08-19T01:31:28;22.00;99.90
5592;DHT22;2818;49.790;9.958;2022-08-19T01:34:00;21.90;99.90
5592;DHT22;2818;49.790;9.958;2022-08-19T01:36:34;21.90;99.90
5592;DHT22;2818;49.790;9.958;2022-08-19T01:39:05;21.90;99.90
5592;DHT22;2818;49.790;9.958;2022-08-19T01:41:32;21.90;99.90
5592;DHT22;2818;49.790;9.958;2022-08-19T01:44:00;21.90;99.90
5592;DHT22;2818;49.790;9.958;2022-08-19T01:46:46;21.80;99.90
5592;DHT22;2818;49.790;9.958;2022-08-19T01:49:15;21.80;99.90
5592;DHT22;2818;49.790;9.958;2022-08-19T01:51:42;21.80;99.90
5592;DHT22;2818;49.790;9.958;2022-08-19T01:54:11;21.80;99.90
5592;DHT22;2818;49.790;9.958;2022-08-19T01:56:50;21.80;99.90
5592;DHT22;2818;49.790;9.958;2022-08-19T01:59:20;21.70;99.90
5592;DHT22;2818;49.790;9.958;2022-08-19T02:01:49;21.70;99.90
5592;DHT22;2818;49.790;9.958;2022-08-19T02:04:16;21.80;99.90
5592;DHT22;2818;49.790;9.958;2022-08-19T02:06:43;21.70;99.90
5592;DHT22;2818;49.790;9.958;2022-08-19T02:09:10;21.70;99.90
5592;DHT22;2818;49.790;9.958;2022-08-19T02:11:37;21.70;99.90
5592;DHT22;2818;49.790;9.958;2022-08-19T02:14:06;21.70;1.00
5592;DHT22;2818;49.790;9.958;2022-08-19T02:16:35;21.60;1.00
5592;DHT22;2818;49.790;9.958;2022-08-19T02:19:03;21.60;1.00
5592;DHT22;2818;49.790;9.958;2022-08-19T02:21:30;21.60;1.00
5592;DHT22;2818;49.790;9.958;2022-08-19T02:23:58;21.60;1.00
5592;DHT22;2818;49.790;9.958;2022-08-19T02:26:25;21.60;1.00
5592;DHT22;2818;49.790;9.958;2022-08-19T02:28:56;21.60;1.00
5592;DHT22;2818;49.790;9.958;2022-08-19T02:31:25;21.50;1.00
5592;DHT22;2818;49.790;9.958;2022-08-19T02:33:55;21.50;1.00
5592;DHT22;2818;49.790;9.958;2022-08-19T02:36:24;21.40;1.00
5592;DHT22;2818;49.790;9.958;2022-08-19T02:38:51;21.40;1.00
5592;DHT22;2818;49.790;9.958;2022-08-19T02:41:24;21.40;1.00
5592;DHT22;2818;49.790;9.958;2022-08-19T02:43:57;21.40;23.70
5592;DHT22;2818;49.790;9.958;2022-08-19T02:46:46;21.30;99.90
5592;DHT22;2818;49.790;9.958;2022-08-19T02:49:14;21.30;99.90
5592;DHT22;2818;49.790;9.958;2022-08-19T02:51:44;21.20;99.90
5592;DHT22;2818;49.790;9.958;2022-08-19T02:54:13;21.20;99.90
5592;DHT22;2818;49.790;9.958;2022-08-19T02:56:42;21.20;99.90
5592;DHT22;2818;49.790;9.958;2022-08-19T02:59:09;21.20;1.00
5592;DHT22;2818;49.790;9.958;2022-08-19T03:01:39;21.20;1.00
5592;DHT22;2818;49.790;9.958;2022-08-19T03:04:11;21.10;1.00
5592;DHT22;2818;49.790;9.958;2022-08-19T03:06:44;21.20;1.00
5592;DHT22;2818;49.790;9.958;2022-08-19T03:09:13;21.10;1.00
5592;DHT22;2818;49.790;9.958;2022-08-19T03:11:40;21.10;1.00
5592;DHT22;2818;49.790;9.958;2022-08-19T03:14:08;21.20;1.00
5592;DHT22;2818;49.790;9.958;2022-08-19T03:16:45;21.20;1.00
5592;DHT22;2818;49.790;9.958;2022-08-19T03:19:13;21.20;1.00
5592;DHT22;2818;49.790;9.958;2022-08-19T03:21:42;21.20;1.00
5592;DHT22;2818;49.790;9.958;2022-08-19T03:24:12;21.20;1.00
5592;DHT22;2818;49.790;9.958;2022-08-19T03:26:52;21.20;1.00
5592;DHT22;2818;49.790;9.958;2022-08-19T03:29:19;21.20;99.90
5592;DHT22;2818;49.790;9.958;2022-08-19T03:31:57;21.20;99.90
5592;DHT22;2818;49.790;9.958;2022-08-19T03:34:28;21.20;99.90
5592;DHT22;2818;49.790;9.958;2022-08-19T03:36:58;21.20;99.90
5592;DHT22;2818;49.790;9.958;2022-08-19T03:39:25;21.10;1.00
5592;DHT22;2818;49.790;9.958;2022-08-19T03:41:54;21.10;1.00
5592;DHT22;2818;49.790;9.958;2022-08-19T03:44:44;21.10;1.00
5592;DHT22;2818;49.790;9.958;2022-08-19T03:47:11;21.10;1.00
5592;DHT22;2818;49.790;9.958;2022-08-19T03:49:43;21.10;1.00
5592;DHT22;2818;49.790;9.958;2022-08-19T03:52:10;21.00;1.00
5592;DHT22;2818;49.790;9.958;2022-08-19T03:54:38;21.00;1.00
5592;DHT22;2818;49.790;9.958;2022-08-19T03:57:05;21.00;13.70
5592;DHT22;2818;49.790;9.958;2022-08-19T03:59:34;21.00;99.90
5592;DHT22;2818;49.790;9.958;2022-08-19T04:02:05;20.90;99.90
5592;DHT22;2818;49.790;9.958;2022-08-19T04:04:39;20.90;99.90
5592;DHT22;2818;49.790;9.958;2022-08-19T04:07:07;20.80;1.00
5592;DHT22;2818;49.790;9.958;2022-08-19T04:09:36;20.70;40.00
5592;DHT22;2818;49.790;9.958;2022-08-19T04:12:04;20.70;99.90
5592;DHT22;2818;49.790;9.958;2022-08-19T04:14:32;20.70;99.90
5592;DHT22;2818;49.790;9.958;2022-08-19T04:17:01;20.70;99.90
5592;DHT22;2818;49.790;9.958;2022-08-19T04:19:33;20.70;1.00
5592;DHT22;2818;49.790;9.958;2022-08-19T04:22:01;20.70;1.00
5592;DHT22;2818;49.790;9.958;2022-08-19T04:24:29;20.60;1.00
5592;DHT22;2818;49.790;9.958;2022-08-19T04:26:56;20.70;1.00
5592;DHT22;2818;49.790;9.958;2022-08-19T04:29:24;20.70;1.00
5592;DHT22;2818;49.790;9.958;2022-08-19T04:31:53;20.70;1.00
5592;DHT22;2818;49.790;9.958;2022-08-19T04:34:22;20.70;1.00
5592;DHT22;2818;49.790;9.958;2022-08-19T04:36:52;20.70;1.00
5592;DHT22;2818;49.790;9.958;2022-08-19T04:39:27;20.70;1.00
5592;DHT22;2818;49.790;9.958;2022-08-19T04:42:17;20.70;1.00
5592;DHT22;2818;49.790;9.958;2022-08-19T04:45:04;20.70;1.00
5592;DHT22;2818;49.790;9.958;2022-08-19T04:47:39;20.80;99.90
5592;DHT22;2818;49.790;9.958;2022-08-19T04:50:25;20.80;1.00
5592;DHT22;2818;49.790;9.958;2022-08-19T04:52:53;20.80;99.90
5592;DHT22;2818;49.790;9.958;2022-08-19T04:55:22;20.80;1.00
5592;DHT22;2818;49.790;9.958;2022-08-19T04:57:52;20.80;1.00
5592;DHT22;2818;49.790;9.958;2022-08-19T05:00:19;20.80;99.90
5592;DHT22;2818;49.790;9.958;2022-08-19T05:02:46;20.90;99.90
5592;DHT22;2818;49.790;9.958;2022-08-19T05:05:13;21.00;99.90
5592;DHT22;2818;49.790;9.958;2022-08-19T05:07:41;21.00;1.00
5592;DHT22;2818;49.790;9.958;2022-08-19T05:10:08;21.00;1.00
5592;DHT22;2818;49.790;9.958;2022-08-19T05:12:35;21.00;1.00
5592;DHT22;2818;49.790;9.958;2022-08-19T05:15:05;21.10;99.90
5592;DHT22;2818;49.790;9.958;2022-08-19T05:17:32;21.10;99.90
5592;DHT22;2818;49.790;9.958;2022-08-19T05:20:05;21.10;70.60
5592;DHT22;2818;49.790;9.958;2022-08-19T05:22:51;21.20;1.00
5592;DHT22;2818;49.790;9.958;2022-08-19T05:25:20;21.30;1.00
5592;DHT22;2818;49.790;9.958;2022-08-19T05:27:48;21.30;1.00
5592;DHT22;2818;49.790;9.958;2022-08-19T05:30:16;21.40;99.90
5592;DHT22;2818;49.790;9.958;2022-08-19T05:32:44;21.40;99.90
5592;DHT22;2818;49.790;9.958;2022-08-19T05:35:11;21.50;99.90
5592;DHT22;2818;49.790;9.958;2022-08-19T05:37:39;21.50;37.30
5592;DHT22;2818;49.790;9.958;2022-08-19T05:40:09;21.50;1.00
5592;DHT22;2818;49.790;9.958;2022-08-19T05:42:37;21.60;1.00
5592;DHT22;2818;49.790;9.958;2022-08-19T05:45:06;21.60;1.00
5592;DHT22;2818;49.790;9.958;2022-08-19T05:47:33;21.60;1.00
5592;DHT22;2818;49.790;9.958;2022-08-19T05:50:00;21.60;1.00
5592;DHT22;2818;49.790;9.958;2022-08-19T05:52:31;21.60;1.00
5592;DHT22;2818;49.790;9.958;2022-08-19T05:54:59;21.70;1.00
5592;DHT22;2818;49.790;9.958;2022-08-19T05:57:26;21.70;1.00
5592;DHT22;2818;49.790;9.958;2022-08-19T05:59:55;21.70;1.00
5592;DHT22;2818;49.790;9.958;2022-08-19T06:02:29;21.70;1.00
5592;DHT22;2818;49.790;9.958;2022-08-19T06:04:59;21.70;1.00
5592;DHT22;2818;49.790;9.958;2022-08-19T06:07:27;21.60;1.00
5592;DHT22;2818;49.790;9.958;2022-08-19T06:09:55;21.60;1.00
5592;DHT22;2818;49.790;9.958;2022-08-19T06:12:30;21.60;1.00
5592;DHT22;2818;49.790;9.958;2022-08-19T06:15:02;21.70;1.00
5592;DHT22;2818;49.790;9.958;2022-08-19T06:17:30;21.60;1.00
5592;DHT22;2818;49.790;9.958;2022-08-19T06:19:58;21.60;1.00
5592;DHT22;2818;49.790;9.958;2022-08-19T06:22:26;21.70;1.00
5592;DHT22;2818;49.790;9.958;2022-08-19T06:24:54;21.80;1.00
5592;DHT22;2818;49.790;9.958;2022-08-19T06:27:22;21.80;1.00
5592;DHT22;2818;49.790;9.958;2022-08-19T06:29:49;21.80;1.00
5592;DHT22;2818;49.790;9.958;2022-08-19T06:32:17;21.90;1.00
5592;DHT22;2818;49.790;9.958;2022-08-19T06:34:46;22.00;1.00
5592;DHT22;2818;49.790;9.958;2022-08-19T06:37:14;22.00;99.90
5592;DHT22;2818;49.790;9.958;2022-08-19T06:39:43;22.10;99.90
5592;DHT22;2818;49.790;9.958;2022-08-19T06:42:11;22.20;99.90
5592;DHT22;2818;49.790;9.958;2022-08-19T06:44:45;22.20;99.90
5592;DHT22;2818;49.790;9.958;2022-08-19T06:47:19;22.30;99.90
5592;DHT22;2818;49.790;9.958;2022-08-19T06:49:54;22.40;45.90
5592;DHT22;2818;49.790;9.958;2022-08-19T06:52:32;22.40;1.00
5592;DHT22;2818;49.790;9.958;2022-08-19T06:55:04;22.50;1.00
5592;DHT22;2818;49.790;9.958;2022-08-19T06:57:33;22.50;1.00
5592;DHT22;2818;49.790;9.958;2022-08-19T07:00:00;22.50;1.00
5592;DHT22;2818;49.790;9.958;2022-08-19T07:02:28;22.50;1.00
5592;DHT22;2818;49.790;9.958;2022-08-19T07:04:55;22.50;1.00
5592;DHT22;2818;49.790;9.958;2022-08-19T07:07:25;22.60;1.00
5592;DHT22;2818;49.790;9.958;2022-08-19T07:09:52;22.60;1.00
5592;DHT22;2818;49.790;9.958;2022-08-19T07:12:29;22.70;1.00
5592;DHT22;2818;49.790;9.958;2022-08-19T07:15:05;22.70;1.00
5592;DHT22;2818;49.790;9.958;2022-08-19T07:17:35;22.80;1.00
5592;DHT22;2818;49.790;9.958;2022-08-19T07:20:06;22.80;1.00
5592;DHT22;2818;49.790;9.958;2022-08-19T07:22:39;22.90;1.00
5592;DHT22;2818;49.790;9.958;2022-08-19T07:25:08;22.90;1.00
5592;DHT22;2818;49.790;9.958;2022-08-19T07:27:36;23.00;99.90
5592;DHT22;2818;49.790;9.958;2022-08-19T07:30:07;23.10;99.90
5592;DHT22;2818;49.790;9.958;2022-08-19T07:32:38;23.20;99.90
5592;DHT22;2818;49.790;9.958;2022-08-19T07:35:06;23.20;99.90
5592;DHT22;2818;49.790;9.958;2022-08-19T07:37:33;23.30;99.90
5592;DHT22;2818;49.790;9.958;2022-08-19T07:40:05;23.30;99.90
5592;DHT22;2818;49.790;9.958;2022-08-19T07:42:33;23.30;99.90
5592;DHT22;2818;49.790;9.958;2022-08-19T07:45:00;23.30;99.90
5592;DHT22;2818;49.790;9.958;2022-08-19T07:47:27;23.30;99.90
5592;DHT22;2818;49.790;9.958;2022-08-19T07:50:15;23.30;99.90
5592;DHT22;2818;49.790;9.958;2022-08-19T07:52:43;23.30;99.90
5592;DHT22;2818;49.790;9.958;2022-08-19T07:55:17;23.30;99.90
5592;DHT22;2818;49.790;9.958;2022-08-19T07:58:04;23.30;99.90
5592;DHT22;2818;49.790;9.958;2022-08-19T08:00:32;23.40;99.90
5592;DHT22;2818;49.790;9.958;2022-08-19T08:02:59;23.40;99.90
5592;DHT22;2818;49.790;9.958;2022-08-19T08:05:26;23.40;99.90
5592;DHT22;2818;49.790;9.958;2022-08-19T08:08:12;23.30;99.90
5592;DHT22;2818;49.790;9.958;2022-08-19T08:11:14;23.30;99.90
5592;DHT22;2818;49.790;9.958;2022-08-19T08:13:43;23.20;99.90
5592;DHT22;2818;49.790;9.958;2022-08-19T08:16:10;23.20;99.90
5592;DHT22;2818;49.790;9.958;2022-08-19T08:18:40;23.30;99.90
5592;DHT22;2818;49.790;9.958;2022-08-19T08:21:16;23.40;99.90
5592;DHT22;2818;49.790;9.958;2022-08-19T08:23:43;23.60;99.90
5592;DHT22;2818;49.790;9.958;2022-08-19T08:26:10;23.80;99.90
5592;DHT22;2818;49.790;9.958;2022-08-19T08:28:38;24.00;42.40
5592;DHT22;2818;49.790;9.958;2022-08-19T08:31:06;24.10;1.00
5592;DHT22;2818;49.790;9.958;2022-08-19T08:33:35;24.30;1.00
5592;DHT22;2818;49.790;9.958;2022-08-19T08:36:04;24.40;1.00
5592;DHT22;2818;49.790;9.958;2022-08-19T08:38:32;24.50;1.00
5592;DHT22;2818;49.790;9.958;2022-08-19T08:44:04;24.50;1.00
5592;DHT22;2818;49.790;9.958;2022-08-19T08:46:51;24.50;1.00
5592;DHT22;2818;49.790;9.958;2022-08-19T08:52:25;24.50;1.00
5592;DHT22;2818;49.790;9.958;2022-08-19T08:55:03;24.50;1.00
5592;DHT22;2818;49.790;9.958;2022-08-19T09:00:17;24.50;1.00
5592;DHT22;2818;49.790;9.958;2022-08-19T09:02:45;24.50;1.00
5592;DHT22;2818;49.790;9.958;2022-08-19T09:05:18;24.50;1.00
5592;DHT22;2818;49.790;9.958;2022-08-19T09:08:02;24.50;1.00
5592;DHT22;2818;49.790;9.958;2022-08-19T09:10:43;24.40;1.00
5592;DHT22;2818;49.790;9.958;2022-08-19T09:16:00;24.40;1.00
5592;DHT22;2818;49.790;9.958;2022-08-19T09:18:48;24.30;1.00
5592;DHT22;2818;49.790;9.958;2022-08-19T09:21:20;24.30;1.00
5592;DHT22;2818;49.790;9.958;2022-08-19T09:23:59;24.30;1.00
5592;DHT22;2818;49.790;9.958;2022-08-19T09:26:29;24.30;1.00
5592;DHT22;2818;49.790;9.958;2022-08-19T09:29:14;24.40;1.00
5592;DHT22;2818;49.790;9.958;2022-08-19T09:31:43;24.40;1.00
5592;DHT22;2818;49.790;9.958;2022-08-19T09:34:10;24.50;1.00
5592;DHT22;2818;49.790;9.958;2022-08-19T09:36:50;24.50;1.00
5592;DHT22;2818;49.790;9.958;2022-08-19T09:39:22;24.50;1.00
5592;DHT22;2818;49.790;9.958;2022-08-19T09:41:49;24.60;1.00
5592;DHT22;2818;49.790;9.958;2022-08-19T09:44:17;24.60;1.00
5592;DHT22;2818;49.790;9.958;2022-08-19T09:46:44;24.70;1.00
5592;DHT22;2818;49.790;9.958;2022-08-19T09:49:15;25.00;99.90
5592;DHT22;2818;49.790;9.958;2022-08-19T09:51:45;25.20;99.90
5592;DHT22;2818;49.790;9.958;2022-08-19T09:54:17;25.40;99.90
5592;DHT22;2818;49.790;9.958;2022-08-19T09:56:50;25.40;99.90
5592;DHT22;2818;49.790;9.958;2022-08-19T09:59:17;25.40;99.90
5592;DHT22;2818;49.790;9.958;2022-08-19T10:01:44;25.40;99.90
5592;DHT22;2818;49.790;9.958;2022-08-19T10:04:12;25.30;99.90
5592;DHT22;2818;49.790;9.958;2022-08-19T10:06:47;25.20;99.90
5592;DHT22;2818;49.790;9.958;2022-08-19T10:09:20;25.10;99.90
5592;DHT22;2818;49.790;9.958;2022-08-19T10:12:01;25.00;99.90
5592;DHT22;2818;49.790;9.958;2022-08-19T10:14:29;24.90;99.90
5592;DHT22;2818;49.790;9.958;2022-08-19T10:16:56;24.90;99.90
5592;DHT22;2818;49.790;9.958;2022-08-19T10:19:25;24.90;99.90
5592;DHT22;2818;49.790;9.958;2022-08-19T10:21:53;24.90;99.90
5592;DHT22;2818;49.790;9.958;2022-08-19T10:24:26;24.90;99.90
5592;DHT22;2818;49.790;9.958;2022-08-19T10:26:54;25.00;99.90
5592;DHT22;2818;49.790;9.958;2022-08-19T10:29:29;25.00;99.90
5592;DHT22;2818;49.790;9.958;2022-08-19T10:32:03;25.10;99.90
5592;DHT22;2818;49.790;9.958;2022-08-19T10:34:38;25.30;99.90
5592;DHT22;2818;49.790;9.958;2022-08-19T10:37:16;25.40;99.90
5592;DHT22;2818;49.790;9.958;2022-08-19T10:39:58;25.60;99.90
5592;DHT22;2818;49.790;9.958;2022-08-19T10:42:25;25.80;99.90
5592;DHT22;2818;49.790;9.958;2022-08-19T10:44:52;26.00;99.90
5592;DHT22;2818;49.790;9.958;2022-08-19T10:47:19;26.10;99.90
5592;DHT22;2818;49.790;9.958;2022-08-19T10:49:54;26.30;99.90
5592;DHT22;2818;49.790;9.958;2022-08-19T10:52:44;26.40;95.60
5592;DHT22;2818;49.790;9.958;2022-08-19T10:55:19;26.80;78.10
5592;DHT22;2818;49.790;9.958;2022-08-19T10:58:18;27.10;36.00
5592;DHT22;2818;49.790;9.958;2022-08-19T11:00:57;27.20;4.70
5592;DHT22;2818;49.790;9.958;2022-08-19T11:03:25;27.20;1.00
5592;DHT22;2818;49.790;9.958;2022-08-19T11:06:03;27.40;1.00
5592;DHT22;2818;49.790;9.958;2022-08-19T11:08:31;28.10;1.00
5592;DHT22;2818;49.790;9.958;2022-08-19T11:10:59;29.00;1.00
5592;DHT22;2818;49.790;9.958;2022-08-19T11:13:33;29.50;1.00
5592;DHT22;2818;49.790;9.958;2022-08-19T11:16:12;29.50;1.00
5592;DHT22;2818;49.790;9.958;2022-08-19T11:18:47;29.40;1.00
5592;DHT22;2818;49.790;9.958;2022-08-19T11:21:17;29.20;1.00
5592;DHT22;2818;49.790;9.958;2022-08-19T11:23:47;28.70;1.00
5592;DHT22;2818;49.790;9.958;2022-08-19T11:26:16;28.40;1.00
5592;DHT22;2818;49.790;9.958;2022-08-19T11:28:44;28.10;1.00
5592;DHT22;2818;49.790;9.958;2022-08-19T11:31:17;27.70;1.00
5592;DHT22;2818;49.790;9.958;2022-08-19T11:33:45;27.50;1.00
5592;DHT22;2818;49.790;9.958;2022-08-19T11:36:14;27.40;1.00
5592;DHT22;2818;49.790;9.958;2022-08-19T11:38:42;27.20;1.00
5592;DHT22;2818;49.790;9.958;2022-08-19T11:41:09;27.10;1.00
5592;DHT22;2818;49.790;9.958;2022-08-19T11:43:37;27.00;1.00
5592;DHT22;2818;49.790;9.958;2022-08-19T11:46:11;26.90;1.00
5592;DHT22;2818;49.790;9.958;2022-08-19T11:48:39;26.90;1.00
5592;DHT22;2818;49.790;9.958;2022-08-19T11:51:09;27.00;1.00
5592;DHT22;2818;49.790;9.958;2022-08-19T11:53:36;27.00;1.00
5592;DHT22;2818;49.790;9.958;2022-08-19T11:56:04;27.10;1.00
5592;DHT22;2818;49.790;9.958;2022-08-19T11:58:31;27.20;1.00
5592;DHT22;2818;49.790;9.958;2022-08-19T12:00:58;27.30;1.00
5592;DHT22;2818;49.790;9.958;2022-08-19T12:03:26;27.40;1.00
5592;DHT22;2818;49.790;9.958;2022-08-19T12:05:53;27.50;1.00
5592;DHT22;2818;49.790;9.958;2022-08-19T12:08:20;27.70;1.00
5592;DHT22;2818;49.790;9.958;2022-08-19T12:10:47;28.00;1.00
5592;DHT22;2818;49.790;9.958;2022-08-19T12:13:14;28.00;1.00
5592;DHT22;2818;49.790;9.958;2022-08-19T12:15:46;28.10;1.00
5592;DHT22;2818;49.790;9.958;2022-08-19T12:18:14;28.00;1.00
5592;DHT22;2818;49.790;9.958;2022-08-19T12:20:42;28.00;1.00
5592;DHT22;2818;49.790;9.958;2022-08-19T12:23:10;27.90;1.00
5592;DHT22;2818;49.790;9.958;2022-08-19T12:25:43;27.80;1.00
5592;DHT22;2818;49.790;9.958;2022-08-19T12:28:21;27.70;1.00
5592;DHT22;2818;49.790;9.958;2022-08-19T12:30:49;27.60;1.00
5592;DHT22;2818;49.790;9.958;2022-08-19T12:33:18;27.50;1.00
5592;DHT22;2818;49.790;9.958;2022-08-19T12:35:46;27.50;1.00
5592;DHT22;2818;49.790;9.958;2022-08-19T12:38:13;27.40;1.00
5592;DHT22;2818;49.790;9.958;2022-08-19T12:40:41;27.40;1.00
5592;DHT22;2818;49.790;9.958;2022-08-19T12:43:11;27.40;1.00
5592;DHT22;2818;49.790;9.958;2022-08-19T12:45:39;27.30;1.00
5592;DHT22;2818;49.790;9.958;2022-08-19T12:48:09;27.30;1.00
5592;DHT22;2818;49.790;9.958;2022-08-19T12:51:08;27.30;1.00
5592;DHT22;2818;49.790;9.958;2022-08-19T12:53:36;27.30;1.00
5592;DHT22;2818;49.790;9.958;2022-08-19T12:56:06;27.30;1.00
5592;DHT22;2818;49.790;9.958;2022-08-19T12:58:38;27.30;1.00
5592;DHT22;2818;49.790;9.958;2022-08-19T13:01:15;27.30;1.00
5592;DHT22;2818;49.790;9.958;2022-08-19T13:03:47;27.40;1.00
5592;DHT22;2818;49.790;9.958;2022-08-19T13:06:16;27.40;1.00
5592;DHT22;2818;49.790;9.958;2022-08-19T13:08:46;27.40;1.00
5592;DHT22;2818;49.790;9.958;2022-08-19T13:11:19;27.40;1.00
5592;DHT22;2818;49.790;9.958;2022-08-19T13:13:48;27.40;1.00
5592;DHT22;2818;49.790;9.958;2022-08-19T13:16:17;27.50;1.00
5592;DHT22;2818;49.790;9.958;2022-08-19T13:18:46;27.50;1.00
5592;DHT22;2818;49.790;9.958;2022-08-19T13:21:20;27.50;1.00
5592;DHT22;2818;49.790;9.958;2022-08-19T13:23:49;27.60;1.00
5592;DHT22;2818;49.790;9.958;2022-08-19T13:26:16;27.60;1.00
5592;DHT22;2818;49.790;9.958;2022-08-19T13:28:44;27.90;1.00
5592;DHT22;2818;49.790;9.958;2022-08-19T13:31:34;28.20;1.00
5592;DHT22;2818;49.790;9.958;2022-08-19T13:34:33;28.40;1.00
5592;DHT22;2818;49.790;9.958;2022-08-19T13:37:02;28.30;1.00
5592;DHT22;2818;49.790;9.958;2022-08-19T13:39:31;28.30;1.00
5592;DHT22;2818;49.790;9.958;2022-08-19T13:41:59;28.50;1.00
5592;DHT22;2818;49.790;9.958;2022-08-19T13:44:28;28.50;1.00
5592;DHT22;2818;49.790;9.958;2022-08-19T13:47:03;28.50;1.00
5592;DHT22;2818;49.790;9.958;2022-08-19T13:49:35;28.50;1.00
5592;DHT22;2818;49.790;9.958;2022-08-19T13:52:04;28.50;1.00
5592;DHT22;2818;49.790;9.958;2022-08-19T13:54:31;28.60;1.00
5592;DHT22;2818;49.790;9.958;2022-08-19T13:56:58;28.50;1.00
5592;DHT22;2818;49.790;9.958;2022-08-19T13:59:25;28.40;1.00
5592;DHT22;2818;49.790;9.958;2022-08-19T14:01:52;28.30;1.00
5592;DHT22;2818;49.790;9.958;2022-08-19T14:04:23;28.30;1.00
5592;DHT22;2818;49.790;9.958;2022-08-19T14:06:50;28.30;1.00
5592;DHT22;2818;49.790;9.958;2022-08-19T14:09:17;28.30;1.00
5592;DHT22;2818;49.790;9.958;2022-08-19T14:11:44;28.30;1.00
5592;DHT22;2818;49.790;9.958;2022-08-19T14:14:13;28.20;1.00
5592;DHT22;2818;49.790;9.958;2022-08-19T14:16:42;28.10;1.00
5592;DHT22;2818;49.790;9.958;2022-08-19T14:19:09;28.10;1.00
5592;DHT22;2818;49.790;9.958;2022-08-19T14:21:36;28.10;1.00
5592;DHT22;2818;49.790;9.958;2022-08-19T14:24:07;28.00;1.00
5592;DHT22;2818;49.790;9.958;2022-08-19T14:26:35;28.00;1.00
5592;DHT22;2818;49.790;9.958;2022-08-19T14:29:02;28.10;1.00
5592;DHT22;2818;49.790;9.958;2022-08-19T14:31:29;28.10;1.00
5592;DHT22;2818;49.790;9.958;2022-08-19T14:33:56;28.20;1.00
5592;DHT22;2818;49.790;9.958;2022-08-19T14:36:23;28.10;1.00
5592;DHT22;2818;49.790;9.958;2022-08-19T14:38:50;28.20;1.00
5592;DHT22;2818;49.790;9.958;2022-08-19T14:41:21;28.20;1.00
5592;DHT22;2818;49.790;9.958;2022-08-19T14:43:50;28.20;1.00
5592;DHT22;2818;49.790;9.958;2022-08-19T14:46:20;28.10;1.00
5592;DHT22;2818;49.790;9.958;2022-08-19T14:48:49;28.00;1.00
5592;DHT22;2818;49.790;9.958;2022-08-19T14:51:19;27.90;1.00
5592;DHT22;2818;49.790;9.958;2022-08-19T14:53:47;27.90;1.00
5592;DHT22;2818;49.790;9.958;2022-08-19T14:56:18;27.90;1.00
5592;DHT22;2818;49.790;9.958;2022-08-19T14:58:46;27.80;1.00
5592;DHT22;2818;49.790;9.958;2022-08-19T15:01:13;27.80;1.00
5592;DHT22;2818;49.790;9.958;2022-08-19T15:03:40;27.80;1.00
5592;DHT22;2818;49.790;9.958;2022-08-19T15:06:08;27.90;1.00
5592;DHT22;2818;49.790;9.958;2022-08-19T15:08:40;27.90;1.00
5592;DHT22;2818;49.790;9.958;2022-08-19T15:11:13;27.90;1.00
5592;DHT22;2818;49.790;9.958;2022-08-19T15:13:42;27.90;1.00
5592;DHT22;2818;49.790;9.958;2022-08-19T15:16:11;27.80;1.00
5592;DHT22;2818;49.790;9.958;2022-08-19T15:18:44;27.70;1.00
5592;DHT22;2818;49.790;9.958;2022-08-19T15:21:13;27.70;1.00
5592;DHT22;2818;49.790;9.958;2022-08-19T15:23:41;27.50;1.00
5592;DHT22;2818;49.790;9.958;2022-08-19T15:26:11;27.40;1.00
5592;DHT22;2818;49.790;9.958;2022-08-19T15:28:42;27.40;1.00
5592;DHT22;2818;49.790;9.958;2022-08-19T15:31:09;27.30;1.00
5592;DHT22;2818;49.790;9.958;2022-08-19T15:33:55;27.20;1.00
5592;DHT22;2818;49.790;9.958;2022-08-19T15:36:25;27.10;1.00
5592;DHT22;2818;49.790;9.958;2022-08-19T15:38:53;27.10;1.00
5592;DHT22;2818;49.790;9.958;2022-08-19T15:41:27;27.00;1.00
5592;DHT22;2818;49.790;9.958;2022-08-19T15:44:03;27.00;1.00
5592;DHT22;2818;49.790;9.958;2022-08-19T15:46:33;27.00;1.00
5592;DHT22;2818;49.790;9.958;2022-08-19T15:49:01;26.90;1.00
5592;DHT22;2818;49.790;9.958;2022-08-19T15:51:31;26.90;1.00
5592;DHT22;2818;49.790;9.958;2022-08-19T15:54:03;26.80;1.00
5592;DHT22;2818;49.790;9.958;2022-08-19T15:56:30;26.80;1.00
5592;DHT22;2818;49.790;9.958;2022-08-19T15:59:24;26.70;1.00
5592;DHT22;2818;49.790;9.958;2022-08-19T16:02:14;26.70;1.00
5592;DHT22;2818;49.790;9.958;2022-08-19T16:05:00;26.60;1.00
5592;DHT22;2818;49.790;9.958;2022-08-19T16:07:45;26.60;1.00
5592;DHT22;2818;49.790;9.958;2022-08-19T16:10:13;26.60;1.00
5592;DHT22;2818;49.790;9.958;2022-08-19T16:12:57;26.70;1.00
5592;DHT22;2818;49.790;9.958;2022-08-19T16:15:26;26.70;1.00
5592;DHT22;2818;49.790;9.958;2022-08-19T16:17:55;26.70;1.00
5592;DHT22;2818;49.790;9.958;2022-08-19T16:20:24;26.70;1.00
5592;DHT22;2818;49.790;9.958;2022-08-19T16:22:53;26.80;1.00
5592;DHT22;2818;49.790;9.958;2022-08-19T16:25:20;26.80;1.00
5592;DHT22;2818;49.790;9.958;2022-08-19T16:27:52;26.70;1.00
5592;DHT22;2818;49.790;9.958;2022-08-19T16:30:35;26.70;1.00
5592;DHT22;2818;49.790;9.958;2022-08-19T16:33:02;26.60;1.00
5592;DHT22;2818;49.790;9.958;2022-08-19T16:35:30;26.60;1.00
5592;DHT22;2818;49.790;9.958;2022-08-19T16:37:57;26.40;1.00
5592;DHT22;2818;49.790;9.958;2022-08-19T16:40:24;26.20;1.00
5592;DHT22;2818;49.790;9.958;2022-08-19T16:42:51;26.00;1.00
5592;DHT22;2818;49.790;9.958;2022-08-19T16:45:19;25.90;19.20
5592;DHT22;2818;49.790;9.958;2022-08-19T16:47:47;25.70;58.60
5592;DHT22;2818;49.790;9.958;2022-08-19T16:50:14;25.60;94.00